메인 페이지
METAR-TAF:

METAR-TAF

공항 :

브리지포트, 코네티컷, 미국

위도: 41-09-30N, 경도: 073-07-44W, 고도: 3m

현재 날씨관측

예보는 52분 전, 11:52시(UTC)에 발표되었습니다.
5kt
온도 -1°C
습도 54%
기압 1013 hPa
시정: 16.1km
맑음

METAR: KBDR 031152Z 26005KT 10SM CLR M01/M09 A2992 RMK AO2 SLP132 T10111089 11006 21022 58013

시각: 07:44 (12:44 UTC)

예보

예보는 1 시간 24분 전, 11:20시(UTC)에 발표되었습니다.
예보 대상 시간: 03일 12시부터 04일 12시까지 (UTC)
서남서8kt
시정: 10km
맑음
03일 1500시부터 (UTC)
11kt, 순간 최대 풍속 17kt
시정: 10km
맑음
03일 2100시부터 (UTC)
7kt
시정: 10km
고도 4000ft 상공 구름 보통
04일 0000시부터 (UTC)
북서5kt
시정: 10km
고도 4000ft 상공 구름 많음

TAF: KBDR 031120Z 0312/0412 25008KT P6SM SKC FM031500 26011G17KT P6SM SKC FM032100 28007KT P6SM SCT040 FM040000 31005KT P6SM BKN040

4,000개 이상의 공항 관측 자료 및 예보 (METAR 및 TAF 보고).

지도상에서 검색 가능한 기상관측소가 노란 점과 빨간 점으로 표시되어 있습니다.

기상관측소 명을 보려면 표시 위로 마우스를 이동하세요.

날씨 관측과 예보를 보려면 클릭하세요.

지도 변경 : 확대하려면 엑스 표시가 있는 녹색 버튼, 축소하려면 빼기 표시가 있는 녹색 버튼, 다음 페이지의 지도를 보려면 녹색 화살표를 클릭하세요.


METAR-TAF: